sensor_id;sensor_type;location;lat;lon;timestamp;P1;durP1;ratioP1;P2;durP2;ratioP2
7939;SDS011;4015;48.888;9.226;2023-01-24T00:01:06;16.27;;;12.73;;
7939;SDS011;4015;48.888;9.226;2023-01-24T00:03:31;16.07;;;11.60;;
7939;SDS011;4015;48.888;9.226;2023-01-24T00:05:56;15.53;;;11.97;;
7939;SDS011;4015;48.888;9.226;2023-01-24T00:08:22;16.67;;;12.33;;
7939;SDS011;4015;48.888;9.226;2023-01-24T00:10:48;16.87;;;11.83;;
7939;SDS011;4015;48.888;9.226;2023-01-24T00:13:14;16.90;;;12.70;;
7939;SDS011;4015;48.888;9.226;2023-01-24T00:15:40;14.77;;;12.23;;
7939;SDS011;4015;48.888;9.226;2023-01-24T00:18:05;15.97;;;12.37;;
7939;SDS011;4015;48.888;9.226;2023-01-24T00:20:31;15.80;;;12.40;;
7939;SDS011;4015;48.888;9.226;2023-01-24T00:22:56;14.50;;;12.13;;
7939;SDS011;4015;48.888;9.226;2023-01-24T00:25:22;16.43;;;13.03;;
7939;SDS011;4015;48.888;9.226;2023-01-24T00:27:47;15.07;;;12.27;;
7939;SDS011;4015;48.888;9.226;2023-01-24T00:30:12;15.77;;;13.83;;
7939;SDS011;4015;48.888;9.226;2023-01-24T00:32:38;17.53;;;13.63;;
7939;SDS011;4015;48.888;9.226;2023-01-24T00:35:03;16.97;;;13.60;;
7939;SDS011;4015;48.888;9.226;2023-01-24T00:37:29;20.33;;;14.50;;
7939;SDS011;4015;48.888;9.226;2023-01-24T00:39:54;22.57;;;15.70;;
7939;SDS011;4015;48.888;9.226;2023-01-24T00:42:20;19.07;;;14.70;;
7939;SDS011;4015;48.888;9.226;2023-01-24T00:44:45;17.67;;;14.33;;
7939;SDS011;4015;48.888;9.226;2023-01-24T00:47:11;20.00;;;15.00;;
7939;SDS011;4015;48.888;9.226;2023-01-24T00:49:36;21.17;;;15.50;;
7939;SDS011;4015;48.888;9.226;2023-01-24T00:52:01;16.80;;;14.27;;
7939;SDS011;4015;48.888;9.226;2023-01-24T00:54:27;21.07;;;15.20;;
7939;SDS011;4015;48.888;9.226;2023-01-24T00:56:52;19.63;;;15.60;;
7939;SDS011;4015;48.888;9.226;2023-01-24T00:59:18;17.90;;;13.53;;
7939;SDS011;4015;48.888;9.226;2023-01-24T01:01:43;19.93;;;15.20;;
7939;SDS011;4015;48.888;9.226;2023-01-24T01:04:09;18.10;;;14.23;;
7939;SDS011;4015;48.888;9.226;2023-01-24T01:06:35;18.53;;;13.80;;
7939;SDS011;4015;48.888;9.226;2023-01-24T01:09:00;17.23;;;14.13;;
7939;SDS011;4015;48.888;9.226;2023-01-24T01:11:26;18.90;;;14.37;;
7939;SDS011;4015;48.888;9.226;2023-01-24T01:13:53;19.30;;;14.67;;
7939;SDS011;4015;48.888;9.226;2023-01-24T01:16:20;19.50;;;14.23;;
7939;SDS011;4015;48.888;9.226;2023-01-24T01:18:45;18.60;;;14.30;;
7939;SDS011;4015;48.888;9.226;2023-01-24T01:21:13;19.33;;;14.83;;
7939;SDS011;4015;48.888;9.226;2023-01-24T01:23:40;17.63;;;13.70;;
7939;SDS011;4015;48.888;9.226;2023-01-24T01:26:07;20.70;;;15.40;;
7939;SDS011;4015;48.888;9.226;2023-01-24T01:28:36;20.10;;;15.50;;
7939;SDS011;4015;48.888;9.226;2023-01-24T01:31:01;23.63;;;14.63;;
7939;SDS011;4015;48.888;9.226;2023-01-24T01:33:27;19.47;;;14.83;;
7939;SDS011;4015;48.888;9.226;2023-01-24T01:35:52;21.37;;;16.47;;
7939;SDS011;4015;48.888;9.226;2023-01-24T01:38:18;19.00;;;14.80;;
7939;SDS011;4015;48.888;9.226;2023-01-24T01:40:44;18.07;;;14.90;;
7939;SDS011;4015;48.888;9.226;2023-01-24T01:43:13;18.57;;;14.63;;
7939;SDS011;4015;48.888;9.226;2023-01-24T01:45:47;19.43;;;14.83;;
7939;SDS011;4015;48.888;9.226;2023-01-24T01:51:06;18.73;;;14.60;;
7939;SDS011;4015;48.888;9.226;2023-01-24T01:53:42;18.53;;;14.67;;
7939;SDS011;4015;48.888;9.226;2023-01-24T01:56:56;20.60;;;15.23;;
7939;SDS011;4015;48.888;9.226;2023-01-24T01:59:06;18.10;;;13.93;;
7939;SDS011;4015;48.888;9.226;2023-01-24T02:01:37;16.53;;;13.33;;
7939;SDS011;4015;48.888;9.226;2023-01-24T02:04:11;18.30;;;14.13;;
7939;SDS011;4015;48.888;9.226;2023-01-24T02:07:01;19.17;;;15.23;;
7939;SDS011;4015;48.888;9.226;2023-01-24T02:09:38;18.03;;;14.13;;
7939;SDS011;4015;48.888;9.226;2023-01-24T02:12:08;20.37;;;14.80;;
7939;SDS011;4015;48.888;9.226;2023-01-24T02:14:37;19.03;;;14.87;;
7939;SDS011;4015;48.888;9.226;2023-01-24T02:17:21;18.63;;;13.97;;
7939;SDS011;4015;48.888;9.226;2023-01-24T02:25:22;18.47;;;14.67;;
7939;SDS011;4015;48.888;9.226;2023-01-24T02:27:56;18.47;;;14.00;;
7939;SDS011;4015;48.888;9.226;2023-01-24T02:30:23;19.40;;;14.00;;
7939;SDS011;4015;48.888;9.226;2023-01-24T02:32:48;16.83;;;13.27;;
7939;SDS011;4015;48.888;9.226;2023-01-24T02:35:23;20.40;;;15.27;;
7939;SDS011;4015;48.888;9.226;2023-01-24T02:37:58;20.30;;;14.47;;
7939;SDS011;4015;48.888;9.226;2023-01-24T02:40:27;22.90;;;14.20;;
7939;SDS011;4015;48.888;9.226;2023-01-24T02:42:53;18.93;;;14.03;;
7939;SDS011;4015;48.888;9.226;2023-01-24T02:45:23;18.27;;;13.93;;
7939;SDS011;4015;48.888;9.226;2023-01-24T02:47:52;18.77;;;14.70;;
7939;SDS011;4015;48.888;9.226;2023-01-24T02:50:20;19.33;;;13.53;;
7939;SDS011;4015;48.888;9.226;2023-01-24T02:52:47;19.30;;;14.33;;
7939;SDS011;4015;48.888;9.226;2023-01-24T02:55:31;18.37;;;14.10;;
7939;SDS011;4015;48.888;9.226;2023-01-24T02:57:57;19.07;;;14.07;;
7939;SDS011;4015;48.888;9.226;2023-01-24T03:00:35;21.00;;;14.57;;
7939;SDS011;4015;48.888;9.226;2023-01-24T03:03:02;17.27;;;13.63;;
7939;SDS011;4015;48.888;9.226;2023-01-24T03:05:29;20.23;;;14.57;;
7939;SDS011;4015;48.888;9.226;2023-01-24T03:08:04;20.27;;;14.37;;
7939;SDS011;4015;48.888;9.226;2023-01-24T03:10:30;19.53;;;14.87;;
7939;SDS011;4015;48.888;9.226;2023-01-24T03:12:56;18.17;;;12.97;;
7939;SDS011;4015;48.888;9.226;2023-01-24T03:15:40;18.67;;;14.03;;
7939;SDS011;4015;48.888;9.226;2023-01-24T03:18:24;20.67;;;15.17;;
7939;SDS011;4015;48.888;9.226;2023-01-24T03:21:08;18.20;;;14.67;;
7939;SDS011;4015;48.888;9.226;2023-01-24T03:23:52;20.03;;;15.20;;
7939;SDS011;4015;48.888;9.226;2023-01-24T03:26:36;18.40;;;14.53;;
7939;SDS011;4015;48.888;9.226;2023-01-24T03:29:19;19.93;;;14.67;;
7939;SDS011;4015;48.888;9.226;2023-01-24T03:32:03;17.90;;;13.47;;
7939;SDS011;4015;48.888;9.226;2023-01-24T03:34:47;18.77;;;14.33;;
7939;SDS011;4015;48.888;9.226;2023-01-24T03:37:17;16.67;;;13.20;;
7939;SDS011;4015;48.888;9.226;2023-01-24T03:40:03;19.77;;;15.00;;
7939;SDS011;4015;48.888;9.226;2023-01-24T03:42:31;21.00;;;14.50;;
7939;SDS011;4015;48.888;9.226;2023-01-24T03:44:57;21.37;;;15.17;;
7939;SDS011;4015;48.888;9.226;2023-01-24T03:47:22;20.30;;;14.63;;
7939;SDS011;4015;48.888;9.226;2023-01-24T03:49:47;18.90;;;13.67;;
7939;SDS011;4015;48.888;9.226;2023-01-24T03:52:31;19.77;;;13.87;;
7939;SDS011;4015;48.888;9.226;2023-01-24T03:54:57;17.67;;;13.47;;
7939;SDS011;4015;48.888;9.226;2023-01-24T03:57:24;19.37;;;14.80;;
7939;SDS011;4015;48.888;9.226;2023-01-24T03:59:50;20.43;;;13.50;;
7939;SDS011;4015;48.888;9.226;2023-01-24T04:02:16;21.57;;;14.87;;
7939;SDS011;4015;48.888;9.226;2023-01-24T04:04:41;20.00;;;15.30;;
7939;SDS011;4015;48.888;9.226;2023-01-24T04:07:26;18.63;;;13.73;;
7939;SDS011;4015;48.888;9.226;2023-01-24T04:09:52;20.00;;;14.43;;
7939;SDS011;4015;48.888;9.226;2023-01-24T04:12:18;20.60;;;14.13;;
7939;SDS011;4015;48.888;9.226;2023-01-24T04:14:43;22.63;;;15.27;;
7939;SDS011;4015;48.888;9.226;2023-01-24T04:17:09;21.03;;;14.90;;
7939;SDS011;4015;48.888;9.226;2023-01-24T04:19:34;23.33;;;15.47;;
7939;SDS011;4015;48.888;9.226;2023-01-24T04:22:00;22.37;;;14.47;;
7939;SDS011;4015;48.888;9.226;2023-01-24T04:24:25;22.50;;;16.00;;
7939;SDS011;4015;48.888;9.226;2023-01-24T04:26:50;19.23;;;14.23;;
7939;SDS011;4015;48.888;9.226;2023-01-24T04:29:16;21.67;;;15.00;;
7939;SDS011;4015;48.888;9.226;2023-01-24T04:31:41;19.47;;;14.57;;
7939;SDS011;4015;48.888;9.226;2023-01-24T04:34:06;18.10;;;14.37;;
7939;SDS011;4015;48.888;9.226;2023-01-24T04:36:32;24.47;;;15.93;;
7939;SDS011;4015;48.888;9.226;2023-01-24T04:38:57;19.43;;;14.70;;
7939;SDS011;4015;48.888;9.226;2023-01-24T04:41:22;19.37;;;14.53;;
7939;SDS011;4015;48.888;9.226;2023-01-24T04:43:48;21.70;;;15.07;;
7939;SDS011;4015;48.888;9.226;2023-01-24T04:46:13;22.60;;;16.00;;
7939;SDS011;4015;48.888;9.226;2023-01-24T04:48:38;20.07;;;14.70;;
7939;SDS011;4015;48.888;9.226;2023-01-24T04:51:04;25.53;;;16.90;;
7939;SDS011;4015;48.888;9.226;2023-01-24T04:53:29;23.93;;;15.97;;
7939;SDS011;4015;48.888;9.226;2023-01-24T04:55:59;23.83;;;16.17;;
7939;SDS011;4015;48.888;9.226;2023-01-24T04:58:25;22.50;;;15.70;;
7939;SDS011;4015;48.888;9.226;2023-01-24T05:00:52;20.37;;;15.23;;
7939;SDS011;4015;48.888;9.226;2023-01-24T05:03:17;23.87;;;15.73;;
7939;SDS011;4015;48.888;9.226;2023-01-24T05:05:42;20.80;;;15.90;;
7939;SDS011;4015;48.888;9.226;2023-01-24T05:08:08;23.00;;;15.73;;
7939;SDS011;4015;48.888;9.226;2023-01-24T05:10:33;22.17;;;16.00;;
7939;SDS011;4015;48.888;9.226;2023-01-24T05:12:58;21.73;;;15.73;;
7939;SDS011;4015;48.888;9.226;2023-01-24T05:15:24;24.47;;;15.43;;
7939;SDS011;4015;48.888;9.226;2023-01-24T05:17:51;19.30;;;14.27;;
7939;SDS011;4015;48.888;9.226;2023-01-24T05:20:16;22.50;;;15.17;;
7939;SDS011;4015;48.888;9.226;2023-01-24T05:22:42;23.43;;;16.67;;
7939;SDS011;4015;48.888;9.226;2023-01-24T05:25:11;24.57;;;16.00;;
7939;SDS011;4015;48.888;9.226;2023-01-24T05:27:37;22.30;;;15.97;;
7939;SDS011;4015;48.888;9.226;2023-01-24T05:30:05;21.87;;;16.07;;
7939;SDS011;4015;48.888;9.226;2023-01-24T05:32:31;23.00;;;16.00;;
7939;SDS011;4015;48.888;9.226;2023-01-24T05:34:56;22.20;;;15.00;;
7939;SDS011;4015;48.888;9.226;2023-01-24T05:37:21;22.50;;;15.97;;
7939;SDS011;4015;48.888;9.226;2023-01-24T05:39:46;21.23;;;15.67;;
7939;SDS011;4015;48.888;9.226;2023-01-24T05:42:12;23.23;;;16.20;;
7939;SDS011;4015;48.888;9.226;2023-01-24T05:44:37;24.73;;;15.50;;
7939;SDS011;4015;48.888;9.226;2023-01-24T05:47:03;19.67;;;14.23;;
7939;SDS011;4015;48.888;9.226;2023-01-24T05:49:28;23.30;;;15.40;;
7939;SDS011;4015;48.888;9.226;2023-01-24T05:51:53;25.70;;;15.53;;
7939;SDS011;4015;48.888;9.226;2023-01-24T05:54:18;25.03;;;15.73;;
7939;SDS011;4015;48.888;9.226;2023-01-24T05:56:44;23.77;;;16.03;;
7939;SDS011;4015;48.888;9.226;2023-01-24T05:59:09;19.50;;;14.47;;
7939;SDS011;4015;48.888;9.226;2023-01-24T06:01:35;21.63;;;15.47;;
7939;SDS011;4015;48.888;9.226;2023-01-24T06:04:00;22.73;;;15.80;;
7939;SDS011;4015;48.888;9.226;2023-01-24T06:06:26;23.17;;;15.87;;
7939;SDS011;4015;48.888;9.226;2023-01-24T06:08:51;24.87;;;15.67;;
7939;SDS011;4015;48.888;9.226;2023-01-24T06:11:18;25.30;;;16.80;;
7939;SDS011;4015;48.888;9.226;2023-01-24T06:13:47;22.17;;;15.87;;
7939;SDS011;4015;48.888;9.226;2023-01-24T06:16:17;21.80;;;15.60;;
7939;SDS011;4015;48.888;9.226;2023-01-24T06:18:44;24.20;;;16.50;;
7939;SDS011;4015;48.888;9.226;2023-01-24T06:24:02;22.63;;;15.83;;
7939;SDS011;4015;48.888;9.226;2023-01-24T06:26:30;24.33;;;15.63;;
7939;SDS011;4015;48.888;9.226;2023-01-24T06:28:56;24.77;;;16.40;;
7939;SDS011;4015;48.888;9.226;2023-01-24T06:37:14;20.20;;;14.93;;
7939;SDS011;4015;48.888;9.226;2023-01-24T06:39:51;21.93;;;15.53;;
7939;SDS011;4015;48.888;9.226;2023-01-24T06:42:18;22.67;;;15.20;;
7939;SDS011;4015;48.888;9.226;2023-01-24T06:44:44;24.80;;;15.90;;
7939;SDS011;4015;48.888;9.226;2023-01-24T06:47:10;22.17;;;15.63;;
7939;SDS011;4015;48.888;9.226;2023-01-24T06:49:37;22.03;;;15.00;;
7939;SDS011;4015;48.888;9.226;2023-01-24T06:52:03;22.47;;;16.10;;
7939;SDS011;4015;48.888;9.226;2023-01-24T06:54:29;24.97;;;16.50;;
7939;SDS011;4015;48.888;9.226;2023-01-24T06:56:54;23.13;;;16.87;;
7939;SDS011;4015;48.888;9.226;2023-01-24T06:59:19;25.67;;;17.20;;
7939;SDS011;4015;48.888;9.226;2023-01-24T07:01:48;21.43;;;15.47;;
7939;SDS011;4015;48.888;9.226;2023-01-24T07:04:13;24.60;;;15.70;;
7939;SDS011;4015;48.888;9.226;2023-01-24T07:06:39;26.13;;;16.13;;
7939;SDS011;4015;48.888;9.226;2023-01-24T07:09:04;24.43;;;15.40;;
7939;SDS011;4015;48.888;9.226;2023-01-24T07:11:30;22.23;;;16.03;;
7939;SDS011;4015;48.888;9.226;2023-01-24T07:13:55;24.03;;;16.47;;
7939;SDS011;4015;48.888;9.226;2023-01-24T07:16:21;25.67;;;15.70;;
7939;SDS011;4015;48.888;9.226;2023-01-24T07:18:46;19.57;;;14.97;;
7939;SDS011;4015;48.888;9.226;2023-01-24T07:21:12;22.80;;;15.97;;
7939;SDS011;4015;48.888;9.226;2023-01-24T07:23:37;24.27;;;15.13;;
7939;SDS011;4015;48.888;9.226;2023-01-24T07:26:08;21.87;;;14.23;;
7939;SDS011;4015;48.888;9.226;2023-01-24T07:28:36;22.63;;;15.77;;
7939;SDS011;4015;48.888;9.226;2023-01-24T07:31:02;22.37;;;15.73;;
7939;SDS011;4015;48.888;9.226;2023-01-24T07:33:28;23.60;;;15.67;;
7939;SDS011;4015;48.888;9.226;2023-01-24T07:35:53;23.60;;;15.63;;
7939;SDS011;4015;48.888;9.226;2023-01-24T07:38:18;22.37;;;15.77;;
7939;SDS011;4015;48.888;9.226;2023-01-24T07:40:44;24.27;;;16.03;;
7939;SDS011;4015;48.888;9.226;2023-01-24T07:43:09;25.17;;;16.20;;
7939;SDS011;4015;48.888;9.226;2023-01-24T07:45:35;23.30;;;15.47;;
7939;SDS011;4015;48.888;9.226;2023-01-24T07:48:04;22.43;;;16.10;;
7939;SDS011;4015;48.888;9.226;2023-01-24T07:50:31;23.37;;;16.07;;
7939;SDS011;4015;48.888;9.226;2023-01-24T07:52:56;24.40;;;16.43;;
7939;SDS011;4015;48.888;9.226;2023-01-24T07:55:23;23.93;;;14.40;;
7939;SDS011;4015;48.888;9.226;2023-01-24T07:57:48;24.30;;;15.97;;
7939;SDS011;4015;48.888;9.226;2023-01-24T08:00:14;22.23;;;15.53;;
7939;SDS011;4015;48.888;9.226;2023-01-24T08:02:41;24.70;;;16.10;;
7939;SDS011;4015;48.888;9.226;2023-01-24T08:05:07;23.53;;;14.00;;
7939;SDS011;4015;48.888;9.226;2023-01-24T08:07:32;22.47;;;14.87;;
7939;SDS011;4015;48.888;9.226;2023-01-24T08:09:58;20.93;;;14.57;;
7939;SDS011;4015;48.888;9.226;2023-01-24T08:12:23;22.40;;;15.27;;
7939;SDS011;4015;48.888;9.226;2023-01-24T08:14:49;20.87;;;14.73;;
7939;SDS011;4015;48.888;9.226;2023-01-24T08:17:14;20.13;;;14.27;;
7939;SDS011;4015;48.888;9.226;2023-01-24T08:19:40;20.97;;;15.17;;
7939;SDS011;4015;48.888;9.226;2023-01-24T08:22:05;22.53;;;15.10;;
7939;SDS011;4015;48.888;9.226;2023-01-24T08:24:31;19.67;;;14.67;;
7939;SDS011;4015;48.888;9.226;2023-01-24T08:27:01;20.53;;;14.47;;
7939;SDS011;4015;48.888;9.226;2023-01-24T08:29:27;20.50;;;13.90;;
7939;SDS011;4015;48.888;9.226;2023-01-24T08:31:53;21.70;;;15.10;;
7939;SDS011;4015;48.888;9.226;2023-01-24T08:34:20;21.53;;;14.77;;
7939;SDS011;4015;48.888;9.226;2023-01-24T08:36:45;22.73;;;14.30;;
7939;SDS011;4015;48.888;9.226;2023-01-24T08:39:11;19.13;;;13.90;;
7939;SDS011;4015;48.888;9.226;2023-01-24T08:41:36;21.27;;;14.13;;
7939;SDS011;4015;48.888;9.226;2023-01-24T08:44:05;21.63;;;14.97;;
7939;SDS011;4015;48.888;9.226;2023-01-24T08:46:31;17.30;;;13.47;;
7939;SDS011;4015;48.888;9.226;2023-01-24T08:48:57;18.80;;;13.83;;
7939;SDS011;4015;48.888;9.226;2023-01-24T08:51:23;20.37;;;14.73;;
7939;SDS011;4015;48.888;9.226;2023-01-24T08:53:49;22.23;;;13.87;;
7939;SDS011;4015;48.888;9.226;2023-01-24T08:56:14;18.80;;;12.90;;
7939;SDS011;4015;48.888;9.226;2023-01-24T08:58:39;19.00;;;14.17;;
7939;SDS011;4015;48.888;9.226;2023-01-24T09:01:06;17.20;;;12.70;;
7939;SDS011;4015;48.888;9.226;2023-01-24T09:03:32;20.40;;;13.67;;
7939;SDS011;4015;48.888;9.226;2023-01-24T09:05:57;18.30;;;13.43;;
7939;SDS011;4015;48.888;9.226;2023-01-24T09:08:23;17.23;;;12.07;;
7939;SDS011;4015;48.888;9.226;2023-01-24T09:10:48;19.90;;;13.17;;
7939;SDS011;4015;48.888;9.226;2023-01-24T09:13:14;19.27;;;13.97;;
7939;SDS011;4015;48.888;9.226;2023-01-24T09:15:40;17.67;;;13.10;;
7939;SDS011;4015;48.888;9.226;2023-01-24T09:18:05;16.40;;;12.00;;
7939;SDS011;4015;48.888;9.226;2023-01-24T09:20:31;17.00;;;11.67;;
7939;SDS011;4015;48.888;9.226;2023-01-24T09:22:56;17.50;;;11.80;;
7939;SDS011;4015;48.888;9.226;2023-01-24T09:25:22;15.07;;;10.77;;
7939;SDS011;4015;48.888;9.226;2023-01-24T09:27:53;16.07;;;11.60;;
7939;SDS011;4015;48.888;9.226;2023-01-24T09:30:19;17.53;;;11.97;;
7939;SDS011;4015;48.888;9.226;2023-01-24T09:32:47;15.03;;;11.43;;
7939;SDS011;4015;48.888;9.226;2023-01-24T09:35:12;15.00;;;11.03;;
7939;SDS011;4015;48.888;9.226;2023-01-24T09:37:38;14.83;;;11.13;;
7939;SDS011;4015;48.888;9.226;2023-01-24T09:40:05;15.00;;;11.00;;
7939;SDS011;4015;48.888;9.226;2023-01-24T09:42:37;15.47;;;10.00;;
7939;SDS011;4015;48.888;9.226;2023-01-24T09:50:17;13.77;;;10.17;;
7939;SDS011;4015;48.888;9.226;2023-01-24T09:52:50;17.93;;;11.10;;
7939;SDS011;4015;48.888;9.226;2023-01-24T09:55:37;12.70;;;9.83;;
7939;SDS011;4015;48.888;9.226;2023-01-24T09:58:07;16.73;;;11.43;;
7939;SDS011;4015;48.888;9.226;2023-01-24T10:00:53;13.17;;;9.83;;
7939;SDS011;4015;48.888;9.226;2023-01-24T10:03:20;15.73;;;10.27;;
7939;SDS011;4015;48.888;9.226;2023-01-24T10:05:48;15.07;;;11.30;;
7939;SDS011;4015;48.888;9.226;2023-01-24T10:08:24;14.27;;;10.27;;
7939;SDS011;4015;48.888;9.226;2023-01-24T10:19:37;14.00;;;10.23;;
7939;SDS011;4015;48.888;9.226;2023-01-24T10:25:12;13.37;;;9.83;;
7939;SDS011;4015;48.888;9.226;2023-01-24T10:27:43;12.37;;;9.87;;
7939;SDS011;4015;48.888;9.226;2023-01-24T10:30:13;12.93;;;10.37;;
7939;SDS011;4015;48.888;9.226;2023-01-24T10:32:41;14.00;;;9.97;;
7939;SDS011;4015;48.888;9.226;2023-01-24T10:35:13;13.37;;;9.37;;
7939;SDS011;4015;48.888;9.226;2023-01-24T10:37:42;14.47;;;10.97;;
7939;SDS011;4015;48.888;9.226;2023-01-24T10:40:13;12.70;;;10.57;;
7939;SDS011;4015;48.888;9.226;2023-01-24T10:42:40;13.23;;;9.03;;
7939;SDS011;4015;48.888;9.226;2023-01-24T10:48:12;14.00;;;9.57;;
7939;SDS011;4015;48.888;9.226;2023-01-24T10:51:12;13.10;;;10.07;;
7939;SDS011;4015;48.888;9.226;2023-01-24T10:53:40;13.33;;;10.07;;
7939;SDS011;4015;48.888;9.226;2023-01-24T10:56:06;14.23;;;10.43;;
7939;SDS011;4015;48.888;9.226;2023-01-24T10:59:14;13.40;;;10.00;;
7939;SDS011;4015;48.888;9.226;2023-01-24T11:01:35;13.70;;;10.13;;
7939;SDS011;4015;48.888;9.226;2023-01-24T11:04:19;12.73;;;9.20;;
7939;SDS011;4015;48.888;9.226;2023-01-24T11:06:45;14.97;;;9.97;;
7939;SDS011;4015;48.888;9.226;2023-01-24T11:09:13;13.00;;;9.47;;
7939;SDS011;4015;48.888;9.226;2023-01-24T11:11:51;12.30;;;9.57;;
7939;SDS011;4015;48.888;9.226;2023-01-24T11:14:25;13.33;;;9.10;;
7939;SDS011;4015;48.888;9.226;2023-01-24T11:16:54;11.40;;;9.50;;
7939;SDS011;4015;48.888;9.226;2023-01-24T11:22:02;12.40;;;8.80;;
7939;SDS011;4015;48.888;9.226;2023-01-24T11:24:44;11.23;;;8.67;;
7939;SDS011;4015;48.888;9.226;2023-01-24T11:27:17;13.80;;;8.60;;
7939;SDS011;4015;48.888;9.226;2023-01-24T11:29:45;14.33;;;9.60;;
7939;SDS011;4015;48.888;9.226;2023-01-24T11:32:43;11.27;;;8.33;;
7939;SDS011;4015;48.888;9.226;2023-01-24T11:35:24;13.60;;;10.17;;
7939;SDS011;4015;48.888;9.226;2023-01-24T11:40:42;11.03;;;8.80;;
7939;SDS011;4015;48.888;9.226;2023-01-24T12:04:12;10.53;;;7.97;;
7939;SDS011;4015;48.888;9.226;2023-01-24T12:09:16;13.07;;;8.90;;
7939;SDS011;4015;48.888;9.226;2023-01-24T12:11:52;10.47;;;8.27;;
7939;SDS011;4015;48.888;9.226;2023-01-24T12:14:51;11.93;;;8.53;;
7939;SDS011;4015;48.888;9.226;2023-01-24T12:26:02;11.87;;;8.83;;
7939;SDS011;4015;48.888;9.226;2023-01-24T12:28:43;10.87;;;8.23;;
7939;SDS011;4015;48.888;9.226;2023-01-24T12:31:18;9.40;;;7.73;;
7939;SDS011;4015;48.888;9.226;2023-01-24T12:36:46;9.57;;;7.80;;
7939;SDS011;4015;48.888;9.226;2023-01-24T12:39:19;11.80;;;8.60;;
7939;SDS011;4015;48.888;9.226;2023-01-24T12:41:49;9.90;;;7.67;;
7939;SDS011;4015;48.888;9.226;2023-01-24T12:47:20;11.20;;;7.90;;
7939;SDS011;4015;48.888;9.226;2023-01-24T12:53:00;12.10;;;8.30;;
7939;SDS011;4015;48.888;9.226;2023-01-24T12:55:38;9.47;;;7.77;;
7939;SDS011;4015;48.888;9.226;2023-01-24T13:09:12;8.20;;;7.33;;
7939;SDS011;4015;48.888;9.226;2023-01-24T13:11:59;8.83;;;7.13;;
7939;SDS011;4015;48.888;9.226;2023-01-24T13:14:45;10.17;;;6.90;;
7939;SDS011;4015;48.888;9.226;2023-01-24T13:28:17;10.50;;;7.33;;
7939;SDS011;4015;48.888;9.226;2023-01-24T13:33:40;9.83;;;7.53;;
7939;SDS011;4015;48.888;9.226;2023-01-24T13:36:34;11.73;;;7.70;;
7939;SDS011;4015;48.888;9.226;2023-01-24T13:39:02;9.37;;;7.10;;
7939;SDS011;4015;48.888;9.226;2023-01-24T13:46:38;9.07;;;7.90;;
7939;SDS011;4015;48.888;9.226;2023-01-24T13:51:47;8.67;;;7.30;;
7939;SDS011;4015;48.888;9.226;2023-01-24T13:59:37;10.63;;;8.13;;
7939;SDS011;4015;48.888;9.226;2023-01-24T14:04:54;9.67;;;8.17;;
7939;SDS011;4015;48.888;9.226;2023-01-24T14:07:30;12.57;;;8.03;;
7939;SDS011;4015;48.888;9.226;2023-01-24T14:10:04;8.03;;;7.07;;
7939;SDS011;4015;48.888;9.226;2023-01-24T14:12:33;9.90;;;7.80;;
7939;SDS011;4015;48.888;9.226;2023-01-24T14:15:04;11.30;;;7.57;;
7939;SDS011;4015;48.888;9.226;2023-01-24T14:20:14;9.27;;;7.83;;
7939;SDS011;4015;48.888;9.226;2023-01-24T14:22:44;10.00;;;7.47;;
7939;SDS011;4015;48.888;9.226;2023-01-24T14:27:48;10.80;;;8.30;;
7939;SDS011;4015;48.888;9.226;2023-01-24T14:30:27;14.40;;;9.20;;
7939;SDS011;4015;48.888;9.226;2023-01-24T14:33:45;10.83;;;8.13;;
7939;SDS011;4015;48.888;9.226;2023-01-24T14:36:22;10.83;;;7.73;;
7939;SDS011;4015;48.888;9.226;2023-01-24T14:41:35;11.80;;;7.90;;
7939;SDS011;4015;48.888;9.226;2023-01-24T14:44:01;11.60;;;7.90;;
7939;SDS011;4015;48.888;9.226;2023-01-24T14:46:26;10.23;;;8.37;;
7939;SDS011;4015;48.888;9.226;2023-01-24T14:48:52;12.77;;;8.30;;
7939;SDS011;4015;48.888;9.226;2023-01-24T14:51:26;9.83;;;7.67;;
7939;SDS011;4015;48.888;9.226;2023-01-24T14:53:52;10.73;;;8.53;;
7939;SDS011;4015;48.888;9.226;2023-01-24T14:56:19;9.27;;;8.23;;
7939;SDS011;4015;48.888;9.226;2023-01-24T14:58:45;10.70;;;8.83;;
7939;SDS011;4015;48.888;9.226;2023-01-24T15:01:25;12.23;;;8.63;;
7939;SDS011;4015;48.888;9.226;2023-01-24T15:03:58;11.73;;;8.60;;
7939;SDS011;4015;48.888;9.226;2023-01-24T15:06:25;12.73;;;9.33;;
7939;SDS011;4015;48.888;9.226;2023-01-24T15:08:53;9.50;;;7.87;;
7939;SDS011;4015;48.888;9.226;2023-01-24T15:11:33;11.40;;;7.70;;
7939;SDS011;4015;48.888;9.226;2023-01-24T15:14:02;16.97;;;11.47;;
7939;SDS011;4015;48.888;9.226;2023-01-24T15:16:34;10.63;;;9.40;;
7939;SDS011;4015;48.888;9.226;2023-01-24T15:19:02;12.47;;;8.63;;
7939;SDS011;4015;48.888;9.226;2023-01-24T15:21:34;10.30;;;8.07;;
7939;SDS011;4015;48.888;9.226;2023-01-24T15:24:27;12.53;;;8.53;;
7939;SDS011;4015;48.888;9.226;2023-01-24T15:26:55;13.00;;;8.60;;
7939;SDS011;4015;48.888;9.226;2023-01-24T15:29:41;9.97;;;7.77;;
7939;SDS011;4015;48.888;9.226;2023-01-24T15:34:47;12.83;;;9.10;;
7939;SDS011;4015;48.888;9.226;2023-01-24T15:37:13;12.53;;;9.17;;
7939;SDS011;4015;48.888;9.226;2023-01-24T15:39:39;11.30;;;8.37;;
7939;SDS011;4015;48.888;9.226;2023-01-24T15:42:10;13.93;;;9.03;;
7939;SDS011;4015;48.888;9.226;2023-01-24T15:44:58;12.23;;;9.90;;
7939;SDS011;4015;48.888;9.226;2023-01-24T15:47:23;11.47;;;8.83;;
7939;SDS011;4015;48.888;9.226;2023-01-24T15:50:16;11.10;;;8.93;;
7939;SDS011;4015;48.888;9.226;2023-01-24T15:55:48;12.10;;;9.47;;
7939;SDS011;4015;48.888;9.226;2023-01-24T15:58:13;11.70;;;9.30;;
7939;SDS011;4015;48.888;9.226;2023-01-24T16:00:39;17.63;;;10.43;;
7939;SDS011;4015;48.888;9.226;2023-01-24T16:03:04;13.77;;;9.93;;
7939;SDS011;4015;48.888;9.226;2023-01-24T16:05:29;15.43;;;10.63;;
7939;SDS011;4015;48.888;9.226;2023-01-24T16:07:55;13.37;;;10.03;;
7939;SDS011;4015;48.888;9.226;2023-01-24T16:10:20;15.07;;;10.83;;
7939;SDS011;4015;48.888;9.226;2023-01-24T16:12:46;14.23;;;9.87;;
7939;SDS011;4015;48.888;9.226;2023-01-24T16:15:16;14.33;;;9.93;;
7939;SDS011;4015;48.888;9.226;2023-01-24T16:17:44;16.40;;;11.60;;
7939;SDS011;4015;48.888;9.226;2023-01-24T16:20:15;17.10;;;10.30;;
7939;SDS011;4015;48.888;9.226;2023-01-24T16:22:43;13.23;;;10.60;;
7939;SDS011;4015;48.888;9.226;2023-01-24T16:25:12;13.50;;;10.70;;
7939;SDS011;4015;48.888;9.226;2023-01-24T16:27:38;15.37;;;10.80;;
7939;SDS011;4015;48.888;9.226;2023-01-24T16:30:05;15.23;;;10.47;;
7939;SDS011;4015;48.888;9.226;2023-01-24T16:32:36;14.87;;;11.10;;
7939;SDS011;4015;48.888;9.226;2023-01-24T16:35:01;13.70;;;9.80;;
7939;SDS011;4015;48.888;9.226;2023-01-24T16:37:26;20.10;;;11.63;;
7939;SDS011;4015;48.888;9.226;2023-01-24T16:39:52;13.07;;;9.80;;
7939;SDS011;4015;48.888;9.226;2023-01-24T16:42:17;13.57;;;11.23;;
7939;SDS011;4015;48.888;9.226;2023-01-24T16:44:53;20.17;;;12.17;;
7939;SDS011;4015;48.888;9.226;2023-01-24T16:47:26;16.20;;;11.50;;
7939;SDS011;4015;48.888;9.226;2023-01-24T16:49:56;18.13;;;10.87;;
7939;SDS011;4015;48.888;9.226;2023-01-24T16:52:22;20.07;;;11.70;;
7939;SDS011;4015;48.888;9.226;2023-01-24T16:54:49;15.23;;;11.80;;
7939;SDS011;4015;48.888;9.226;2023-01-24T16:57:15;17.50;;;11.80;;
7939;SDS011;4015;48.888;9.226;2023-01-24T16:59:41;16.17;;;11.80;;
7939;SDS011;4015;48.888;9.226;2023-01-24T17:02:07;16.17;;;11.90;;
7939;SDS011;4015;48.888;9.226;2023-01-24T17:04:34;19.40;;;12.10;;
7939;SDS011;4015;48.888;9.226;2023-01-24T17:06:59;22.10;;;13.13;;
7939;SDS011;4015;48.888;9.226;2023-01-24T17:09:28;20.43;;;13.27;;
7939;SDS011;4015;48.888;9.226;2023-01-24T17:11:54;19.47;;;13.40;;
7939;SDS011;4015;48.888;9.226;2023-01-24T17:14:19;22.60;;;13.27;;
7939;SDS011;4015;48.888;9.226;2023-01-24T17:16:46;17.77;;;12.97;;
7939;SDS011;4015;48.888;9.226;2023-01-24T17:19:12;17.77;;;12.73;;
7939;SDS011;4015;48.888;9.226;2023-01-24T17:21:37;22.27;;;14.83;;